createdAt,value
2018-06-17T00:00:10.899Z,98934.44
2018-06-17T00:00:42.067Z,98938.41
2018-06-17T00:01:13.240Z,98939.72
2018-06-17T00:01:44.409Z,98935.77
2018-06-17T00:02:15.647Z,98936.38
2018-06-17T00:02:46.821Z,98935.05
2018-06-17T00:03:17.987Z,98942.11
2018-06-17T00:03:49.152Z,98932.98
2018-06-17T00:04:20.321Z,98933.35
2018-06-17T00:04:51.507Z,98935.63
2018-06-17T00:05:22.685Z,98932.86
2018-06-17T00:05:53.895Z,98936.70
2018-06-17T00:06:25.071Z,98938.75
2018-06-17T00:06:56.255Z,98936.70
2018-06-17T00:07:27.468Z,98938.78
2018-06-17T00:07:58.666Z,98940.67
2018-06-17T00:08:29.841Z,98935.39
2018-06-17T00:09:01.031Z,98938.03
2018-06-17T00:09:32.228Z,98935.05
2018-06-17T00:10:03.483Z,98942.48
2018-06-17T00:10:34.655Z,98937.31
2018-06-17T00:11:06.681Z,98936.56
2018-06-17T00:11:37.863Z,98940.91
2018-06-17T00:12:09.033Z,98939.70
2018-06-17T00:12:40.227Z,98941.97
2018-06-17T00:13:11.400Z,98945.68
2018-06-17T00:13:42.590Z,98947.25
2018-06-17T00:14:13.788Z,98948.09
2018-06-17T00:14:44.975Z,98946.39
2018-06-17T00:15:16.228Z,98946.39
2018-06-17T00:15:47.411Z,98947.38
2018-06-17T00:16:18.589Z,98949.03
2018-06-17T00:16:49.765Z,98942.43
2018-06-17T00:17:20.932Z,98955.64
2018-06-17T00:17:52.132Z,98954.13
2018-06-17T00:18:23.297Z,98947.14
2018-06-17T00:18:54.467Z,98946.51
2018-06-17T00:19:25.662Z,98953.48
2018-06-17T00:19:56.819Z,98950.73
2018-06-17T00:20:28.021Z,98948.20
2018-06-17T00:20:59.212Z,98949.15
2018-06-17T00:21:30.406Z,98951.08
2018-06-17T00:22:01.588Z,98950.22
2018-06-17T00:22:32.786Z,98951.16
2018-06-17T00:23:04.035Z,98952.48
2018-06-17T00:23:35.235Z,98954.67
2018-06-17T00:24:06.404Z,98954.15
2018-06-17T00:24:37.648Z,98948.61
2018-06-17T00:25:08.826Z,98956.73
2018-06-17T00:25:40.042Z,98955.78
2018-06-17T00:26:11.209Z,98956.62
2018-06-17T00:26:42.418Z,98957.48
2018-06-17T00:27:13.631Z,98957.48
2018-06-17T00:27:44.797Z,98960.01
2018-06-17T00:28:15.985Z,98955.92
2018-06-17T00:28:47.218Z,98962.80
2018-06-17T00:29:18.418Z,98961.84
2018-06-17T00:29:49.610Z,98959.95
2018-06-17T00:30:20.823Z,98965.70
2018-06-17T00:30:52.072Z,98963.02
2018-06-17T00:31:23.240Z,98968.77
2018-06-17T00:31:54.408Z,98965.86
2018-06-17T00:32:25.575Z,98964.08
2018-06-17T00:32:56.749Z,98966.23
2018-06-17T00:33:27.915Z,98969.25
2018-06-17T00:33:59.083Z,98970.95
2018-06-17T00:34:30.290Z,98964.80
2018-06-17T00:35:01.467Z,98969.37
2018-06-17T00:35:32.663Z,98967.10
2018-06-17T00:36:03.851Z,98963.48
2018-06-17T00:36:35.100Z,98962.91
2018-06-17T00:37:06.311Z,98969.89
2018-06-17T00:37:37.528Z,98970.00
2018-06-17T00:38:08.715Z,98967.25
2018-06-17T00:38:39.882Z,98973.97
2018-06-17T00:39:12.335Z,98969.25
2018-06-17T00:39:43.499Z,98967.56
2018-06-17T00:40:14.700Z,98970.31
2018-06-17T00:40:45.915Z,98972.58
2018-06-17T00:41:17.111Z,98966.92
2018-06-17T00:41:48.275Z,98973.27
2018-06-17T00:42:19.446Z,98978.66
2018-06-17T00:42:50.680Z,98974.33
2018-06-17T00:43:21.876Z,98970.48
2018-06-17T00:43:53.058Z,98972.25
2018-06-17T00:44:24.249Z,98970.59
2018-06-17T00:44:55.438Z,98968.89
2018-06-17T00:45:26.621Z,98970.94
2018-06-17T00:45:57.814Z,98969.42
2018-06-17T00:46:28.974Z,98970.63
2018-06-17T00:47:00.135Z,98967.30
2018-06-17T00:47:31.299Z,98968.77
2018-06-17T00:48:02.492Z,98963.85
2018-06-17T00:48:33.664Z,98968.94
2018-06-17T00:49:04.831Z,98969.46
2018-06-17T00:49:36.003Z,98971.16
2018-06-17T00:50:07.168Z,98966.81
2018-06-17T00:50:38.354Z,98970.78
2018-06-17T00:51:09.588Z,98975.13
2018-06-17T00:51:40.787Z,98973.42
2018-06-17T00:52:11.990Z,98968.52
2018-06-17T00:52:43.152Z,98976.44
2018-06-17T00:53:14.343Z,98967.99
2018-06-17T00:53:45.528Z,98973.16
2018-06-17T00:54:16.696Z,98972.22
2018-06-17T00:54:47.926Z,98973.05
2018-06-17T00:55:19.104Z,98974.68
2018-06-17T00:55:50.281Z,98969.63
2018-06-17T00:56:21.461Z,98968.42
2018-06-17T00:56:52.627Z,98972.95
2018-06-17T00:57:23.796Z,98967.79
2018-06-17T00:57:54.956Z,98964.77
2018-06-17T00:58:26.145Z,98968.62
2018-06-17T00:58:57.328Z,98965.03
2018-06-17T00:59:28.511Z,98963.14
2018-06-17T00:59:59.735Z,98963.02
2018-06-17T01:00:30.914Z,98959.63
2018-06-17T01:01:02.108Z,98959.89
2018-06-17T01:01:33.307Z,98952.22
2018-06-17T01:02:04.486Z,98955.61
2018-06-17T01:02:35.648Z,98953.61
2018-06-17T01:03:06.816Z,98958.77
2018-06-17T01:03:37.992Z,98959.98
2018-06-17T01:04:09.235Z,98955.19
2018-06-17T01:04:40.459Z,98958.08
2018-06-17T01:05:11.657Z,98954.95
2018-06-17T01:05:42.832Z,98955.21
2018-06-17T01:06:14.091Z,98959.29
2018-06-17T01:06:45.260Z,98955.21
2018-06-17T01:07:16.424Z,98956.91
2018-06-17T01:07:47.597Z,98954.44
2018-06-17T01:08:18.771Z,98957.53
2018-06-17T01:08:49.935Z,98958.03
2018-06-17T01:09:21.144Z,98956.09
2018-06-17T01:09:52.311Z,98954.69
2018-06-17T01:10:23.507Z,98953.83
2018-06-17T01:10:54.713Z,98954.44
2018-06-17T01:11:25.980Z,98962.36
2018-06-17T01:11:57.143Z,98957.42
2018-06-17T01:12:28.344Z,98959.12
2018-06-17T01:12:59.525Z,98959.61
2018-06-17T01:13:30.688Z,98963.45
2018-06-17T01:14:01.930Z,98958.54
2018-06-17T01:14:33.091Z,98958.54
2018-06-17T01:15:04.257Z,98956.84
2018-06-17T01:15:35.430Z,98959.48
2018-06-17T01:16:06.603Z,98954.31
2018-06-17T01:16:37.772Z,98957.16
2018-06-17T01:17:08.956Z,98961.81
2018-06-17T01:17:40.126Z,98958.91
2018-06-17T01:18:11.286Z,98958.08
2018-06-17T01:18:42.456Z,98958.66
2018-06-17T01:19:13.672Z,98957.19
2018-06-17T01:19:44.846Z,98955.13
2018-06-17T01:20:16.016Z,98953.23
2018-06-17T01:20:47.202Z,98957.19
2018-06-17T01:21:18.375Z,98952.86
2018-06-17T01:21:49.545Z,98954.55
2018-06-17T01:22:20.716Z,98951.80
2018-06-17T01:22:51.920Z,98953.98
2018-06-17T01:23:23.107Z,98955.64
2018-06-17T01:23:54.288Z,98958.77
2018-06-17T01:24:25.521Z,98959.84
2018-06-17T01:24:56.684Z,98958.52
2018-06-17T01:25:27.853Z,98956.81
2018-06-17T01:25:59.024Z,98963.42
2018-06-17T01:26:30.197Z,98961.27
2018-06-17T01:27:01.369Z,98959.95
2018-06-17T01:27:32.536Z,98959.46
2018-06-17T01:28:03.718Z,98961.73
2018-06-17T01:28:34.896Z,98962.71
2018-06-17T01:29:06.064Z,98963.66
2018-06-17T01:29:37.264Z,98967.62
2018-06-17T01:30:08.428Z,98965.17
2018-06-17T01:30:39.606Z,98967.10
2018-06-17T01:31:10.791Z,98960.69
2018-06-17T01:31:41.981Z,98965.23
2018-06-17T01:32:13.177Z,98970.77
2018-06-17T01:32:44.343Z,98966.81
2018-06-17T01:33:15.513Z,98970.31
2018-06-17T01:33:46.691Z,98967.10
2018-06-17T01:34:17.908Z,98969.25
2018-06-17T01:34:49.095Z,98970.58
2018-06-17T01:35:20.283Z,98967.94
2018-06-17T01:35:51.464Z,98971.64
2018-06-17T01:36:22.641Z,98961.19
2018-06-17T01:36:53.800Z,98962.96
2018-06-17T01:37:24.961Z,98962.96
2018-06-17T01:37:56.132Z,98959.94
2018-06-17T01:38:27.331Z,98958.11
2018-06-17T01:38:58.505Z,98961.34
2018-06-17T01:39:29.667Z,98963.98
2018-06-17T01:40:00.863Z,98963.02
2018-06-17T01:40:32.033Z,98959.05
2018-06-17T01:41:03.226Z,98958.70
2018-06-17T01:41:34.418Z,98962.06
2018-06-17T01:42:05.611Z,98965.66
2018-06-17T01:42:36.800Z,98961.12
2018-06-17T01:43:07.972Z,98963.02
2018-06-17T01:43:39.142Z,98961.34
2018-06-17T01:44:10.318Z,98960.97
2018-06-17T01:44:41.548Z,98962.48
2018-06-17T01:45:12.722Z,98968.14
2018-06-17T01:45:43.903Z,98964.04
2018-06-17T01:46:15.072Z,98965.13
2018-06-17T01:46:46.260Z,98962.60
2018-06-17T01:47:17.429Z,98969.47
2018-06-17T01:47:48.676Z,98970.84
2018-06-17T01:48:19.872Z,98969.52
2018-06-17T01:48:51.040Z,98970.84
2018-06-17T01:49:22.263Z,98975.28
2018-06-17T01:49:53.440Z,98969.25
2018-06-17T01:50:24.608Z,98969.74
2018-06-17T01:50:55.791Z,98966.09
2018-06-17T01:51:26.987Z,98969.41
2018-06-17T01:51:58.194Z,98971.67
2018-06-17T01:52:29.368Z,98971.33
2018-06-17T01:53:00.617Z,98973.22
2018-06-17T01:53:31.787Z,98972.84
2018-06-17T01:54:02.969Z,98971.52
2018-06-17T01:54:34.147Z,98979.18
2018-06-17T01:55:05.331Z,98982.08
2018-06-17T01:55:36.522Z,98980.61
2018-06-17T01:56:07.711Z,98978.16
2018-06-17T01:56:38.925Z,98983.09
2018-06-17T01:57:10.115Z,98983.09
2018-06-17T01:57:41.272Z,98980.08
2018-06-17T01:58:12.495Z,98978.77
2018-06-17T01:58:43.689Z,98980.08
2018-06-17T01:59:14.881Z,98975.64
2018-06-17T01:59:46.108Z,98976.12
2018-06-17T02:00:17.280Z,98974.80
2018-06-17T02:00:48.487Z,98975.75
2018-06-17T02:01:19.675Z,98970.66
2018-06-17T02:01:50.858Z,98976.42
2018-06-17T02:02:22.051Z,98970.88
2018-06-17T02:02:53.255Z,98970.05
2018-06-17T02:03:24.443Z,98975.41
2018-06-17T02:03:55.671Z,98972.95
2018-06-17T02:04:26.865Z,98974.47
2018-06-17T02:04:58.047Z,98976.54
2018-06-17T02:05:29.243Z,98975.22
2018-06-17T02:06:00.447Z,98973.14
2018-06-17T02:06:31.627Z,98977.86
2018-06-17T02:07:02.797Z,98976.05
2018-06-17T02:07:33.969Z,98978.42
2018-06-17T02:08:05.157Z,98971.94
2018-06-17T02:08:36.319Z,98978.53
2018-06-17T02:09:07.514Z,98976.38
2018-06-17T02:09:38.684Z,98976.77
2018-06-17T02:10:09.844Z,98972.69
2018-06-17T02:10:41.023Z,98975.33
2018-06-17T02:11:12.201Z,98975.97
2018-06-17T02:11:43.417Z,98978.42
2018-06-17T02:12:14.649Z,98969.78
2018-06-17T02:12:45.881Z,98968.47
2018-06-17T02:13:17.112Z,98974.88
2018-06-17T02:13:48.376Z,98976.41
2018-06-17T02:14:19.604Z,98976.98
2018-06-17T02:14:50.879Z,98970.88
2018-06-17T02:15:22.114Z,98970.00
2018-06-17T02:15:53.366Z,98970.88
2018-06-17T02:16:24.599Z,98972.64
2018-06-17T02:16:55.868Z,98972.64
2018-06-17T02:17:27.110Z,98968.23
2018-06-17T02:17:58.342Z,98969.44
2018-06-17T02:18:29.569Z,98971.52
2018-06-17T02:19:00.801Z,98966.50
2018-06-17T02:19:32.032Z,98969.14
2018-06-17T02:20:03.274Z,98967.83
2018-06-17T02:20:34.498Z,98962.28
2018-06-17T02:21:05.747Z,98961.03
2018-06-17T02:21:37.012Z,98966.42
2018-06-17T02:22:08.242Z,98960.88
2018-06-17T02:22:39.473Z,98962.20
2018-06-17T02:23:10.710Z,98950.06
2018-06-17T02:23:41.945Z,98958.08
2018-06-17T02:24:13.173Z,98960.34
2018-06-17T02:24:44.457Z,98957.22
2018-06-17T02:25:15.684Z,98962.16
2018-06-17T02:25:46.923Z,98961.78
2018-06-17T02:26:18.152Z,98957.44
2018-06-17T02:26:49.389Z,98958.77
2018-06-17T02:27:20.625Z,98959.33
2018-06-17T02:27:51.857Z,98958.49
2018-06-17T02:28:23.109Z,98963.02
2018-06-17T02:28:54.337Z,98957.09
2018-06-17T02:29:25.569Z,98955.13
2018-06-17T02:29:56.849Z,98958.25
2018-06-17T02:30:28.073Z,98950.91
2018-06-17T02:30:59.343Z,98955.73
2018-06-17T02:31:30.577Z,98955.08
2018-06-17T02:32:01.813Z,98955.08
2018-06-17T02:32:33.093Z,98953.38
2018-06-17T02:33:04.333Z,98951.13
2018-06-17T02:33:35.637Z,98953.27
2018-06-17T02:34:06.864Z,98950.36
2018-06-17T02:34:38.090Z,98953.76
2018-06-17T02:35:09.321Z,98954.97
2018-06-17T02:35:40.550Z,98947.44
2018-06-17T02:36:11.780Z,98945.28
2018-06-17T02:36:43.013Z,98954.03
2018-06-17T02:37:14.249Z,98949.96
2018-06-17T02:37:45.520Z,98951.28
2018-06-17T02:38:16.777Z,98947.92
2018-06-17T02:38:48.025Z,98949.70
2018-06-17T02:39:19.254Z,98948.97
2018-06-17T02:39:50.485Z,98946.41
2018-06-17T02:40:21.721Z,98943.50
2018-06-17T02:40:52.967Z,98943.98
2018-06-17T02:41:24.204Z,98940.03
2018-06-17T02:41:55.441Z,98947.95
2018-06-17T02:42:26.673Z,98944.82
2018-06-17T02:42:57.956Z,98947.67
2018-06-17T02:43:29.205Z,98945.71
2018-06-17T02:44:00.444Z,98942.31
2018-06-17T02:44:31.684Z,98949.39
2018-06-17T02:45:02.958Z,98944.69
2018-06-17T02:45:34.189Z,98942.16
2018-06-17T02:46:05.421Z,98946.11
2018-06-17T02:46:36.653Z,98941.78
2018-06-17T02:47:07.889Z,98940.45
2018-06-17T02:47:39.127Z,98942.61
2018-06-17T02:48:10.389Z,98942.61
2018-06-17T02:48:41.641Z,98939.25
2018-06-17T02:49:12.882Z,98943.31
2018-06-17T02:49:44.105Z,98942.34
2018-06-17T02:50:15.338Z,98942.34
2018-06-17T02:50:46.614Z,98942.34
2018-06-17T02:51:17.846Z,98943.66
2018-06-17T02:51:49.077Z,98942.27
2018-06-17T02:52:20.302Z,98940.95
2018-06-17T02:52:51.526Z,98941.29
2018-06-17T02:53:22.756Z,98945.62
2018-06-17T02:53:53.999Z,98944.80
2018-06-17T02:54:25.233Z,98946.11
2018-06-17T02:54:56.463Z,98942.53
2018-06-17T02:55:27.693Z,98946.27
2018-06-17T02:55:58.979Z,98950.50
2018-06-17T02:56:30.211Z,98946.36
2018-06-17T02:57:01.490Z,98947.84
2018-06-17T02:57:32.722Z,98947.16
2018-06-17T02:58:03.956Z,98946.00
2018-06-17T02:58:35.297Z,98949.39
2018-06-17T02:59:06.529Z,98954.67
2018-06-17T02:59:37.752Z,98952.48
2018-06-17T03:00:08.985Z,98950.83
2018-06-17T03:00:40.227Z,98952.98
2018-06-17T03:01:11.497Z,98952.87
2018-06-17T03:01:42.729Z,98951.09
2018-06-17T03:02:14.017Z,98959.17
2018-06-17T03:02:45.256Z,98952.38
2018-06-17T03:03:16.491Z,98956.87
2018-06-17T03:03:47.791Z,98958.36
2018-06-17T03:04:19.045Z,98957.56
2018-06-17T03:04:50.283Z,98943.20
2018-06-17T03:05:21.517Z,98955.42
2018-06-17T03:05:52.753Z,98959.00
2018-06-17T03:06:23.982Z,98955.80
2018-06-17T03:06:55.221Z,98956.89
2018-06-17T03:07:26.497Z,98953.84
2018-06-17T03:07:57.729Z,98955.30
2018-06-17T03:08:28.960Z,98953.67
2018-06-17T03:09:00.193Z,98948.09
2018-06-17T03:09:31.425Z,98951.25
2018-06-17T03:10:02.688Z,98953.67
2018-06-17T03:10:33.917Z,98950.08
2018-06-17T03:11:05.149Z,98949.02
2018-06-17T03:11:36.381Z,98951.35
2018-06-17T03:12:07.616Z,98948.86
2018-06-17T03:12:38.850Z,98946.84
2018-06-17T03:13:10.084Z,98940.50
2018-06-17T03:13:41.309Z,98939.23
2018-06-17T03:14:12.541Z,98948.59
2018-06-17T03:14:43.778Z,98947.77
2018-06-17T03:15:15.057Z,98940.67
2018-06-17T03:15:46.288Z,98946.82
2018-06-17T03:16:17.521Z,98942.63
2018-06-17T03:16:48.748Z,98941.56
2018-06-17T03:17:19.972Z,98936.17
2018-06-17T03:17:51.197Z,98937.86
2018-06-17T03:18:22.488Z,98945.91
2018-06-17T03:18:53.729Z,98944.58
2018-06-17T03:19:24.966Z,98949.12
2018-06-17T03:19:56.201Z,98941.16
2018-06-17T03:20:27.469Z,98947.24
2018-06-17T03:20:58.717Z,98945.29
2018-06-17T03:21:29.954Z,98943.97
2018-06-17T03:22:01.176Z,98947.18
2018-06-17T03:22:32.402Z,98948.05
2018-06-17T03:23:03.636Z,98942.53
2018-06-17T03:23:34.862Z,98947.24
2018-06-17T03:24:06.158Z,98948.94
2018-06-17T03:24:37.404Z,98943.92
2018-06-17T03:25:08.646Z,98950.98
2018-06-17T03:25:39.884Z,98950.03
2018-06-17T03:26:11.138Z,98948.48
2018-06-17T03:26:42.360Z,98944.33
2018-06-17T03:27:13.585Z,98951.56
2018-06-17T03:27:44.816Z,98944.95
2018-06-17T03:28:16.049Z,98953.00
2018-06-17T03:28:47.289Z,98953.94
2018-06-17T03:29:18.573Z,98953.69
2018-06-17T03:29:49.812Z,98945.50
2018-06-17T03:30:21.054Z,98944.75
2018-06-17T03:30:52.310Z,98941.47
2018-06-17T03:31:23.545Z,98944.23
2018-06-17T03:31:54.781Z,98945.55
2018-06-17T03:32:26.020Z,98946.98
2018-06-17T03:32:57.258Z,98943.79
2018-06-17T03:33:28.517Z,98939.80
2018-06-17T03:33:59.741Z,98942.02
2018-06-17T03:34:31.011Z,98946.74
2018-06-17T03:35:02.252Z,98940.75
2018-06-17T03:35:33.484Z,98945.16
2018-06-17T03:36:04.718Z,98945.16
2018-06-17T03:36:35.949Z,98943.39
2018-06-17T03:37:07.180Z,98946.14
2018-06-17T03:37:38.410Z,98944.59
2018-06-17T03:38:09.638Z,98941.58
2018-06-17T03:38:40.895Z,98940.70
2018-06-17T03:39:12.132Z,98947.48
2018-06-17T03:39:43.421Z,98944.18
2018-06-17T03:40:14.662Z,98942.28
2018-06-17T03:40:45.929Z,98935.44
2018-06-17T03:41:17.170Z,98917.20
2018-06-17T03:41:48.412Z,98939.38
2018-06-17T03:42:19.654Z,98944.31
2018-06-17T03:42:50.883Z,98944.69
2018-06-17T03:43:22.113Z,98937.42
2018-06-17T03:43:53.341Z,98938.19
2018-06-17T03:44:24.577Z,98935.39
2018-06-17T03:44:55.850Z,98941.97
2018-06-17T03:45:27.084Z,98943.86
2018-06-17T03:45:58.334Z,98937.55
2018-06-17T03:46:29.570Z,98942.27
2018-06-17T03:47:00.801Z,98942.18
2018-06-17T03:47:32.037Z,98943.39
2018-06-17T03:48:03.297Z,98938.84
2018-06-17T03:48:34.577Z,98942.94
2018-06-17T03:49:05.813Z,98940.17
2018-06-17T03:49:37.050Z,98942.70
2018-06-17T03:50:08.290Z,98944.39
2018-06-17T03:50:39.527Z,98946.80
2018-06-17T03:51:10.856Z,98941.37
2018-06-17T03:51:42.124Z,98946.52
2018-06-17T03:52:13.357Z,98948.09
2018-06-17T03:52:44.597Z,98946.02
2018-06-17T03:53:15.834Z,98942.98
2018-06-17T03:53:47.078Z,98938.62
2018-06-17T03:54:18.305Z,98946.81
2018-06-17T03:54:49.549Z,98943.55
2018-06-17T03:55:20.781Z,98942.56
2018-06-17T03:55:52.032Z,98947.73
2018-06-17T03:56:23.308Z,98941.95
2018-06-17T03:56:54.552Z,98943.27
2018-06-17T03:57:25.789Z,98948.84
2018-06-17T03:57:57.061Z,98942.72
2018-06-17T03:58:28.293Z,98944.19
2018-06-17T03:58:59.525Z,98945.91
2018-06-17T03:59:30.769Z,98944.34
2018-06-17T04:00:02.015Z,98941.94
2018-06-17T04:00:33.248Z,98942.53
2018-06-17T04:01:04.488Z,98937.84
2018-06-17T04:01:35.724Z,98942.17
2018-06-17T04:02:07.005Z,98933.44
2018-06-17T04:02:38.232Z,98931.33
2018-06-17T04:03:09.461Z,98939.19
2018-06-17T04:03:40.705Z,98938.44
2018-06-17T04:04:12.025Z,98940.12
2018-06-17T04:04:43.260Z,98939.11
2018-06-17T04:05:14.497Z,98936.22
2018-06-17T04:05:45.725Z,98934.03
2018-06-17T04:06:16.970Z,98936.04
2018-06-17T04:06:48.201Z,98937.12
2018-06-17T04:07:19.529Z,98939.89
2018-06-17T04:07:50.768Z,98938.44
2018-06-17T04:08:22.013Z,98940.89
2018-06-17T04:08:53.249Z,98946.15
2018-06-17T04:09:24.493Z,98940.31
2018-06-17T04:09:55.725Z,98942.08
2018-06-17T04:10:26.974Z,98945.42
2018-06-17T04:10:58.312Z,98943.43
2018-06-17T04:11:29.562Z,98945.56
2018-06-17T04:12:00.803Z,98948.52
2018-06-17T04:12:32.086Z,98949.09
2018-06-17T04:13:03.319Z,98950.40
2018-06-17T04:13:34.585Z,98951.67
2018-06-17T04:14:05.814Z,98950.09
2018-06-17T04:14:37.054Z,98954.34
2018-06-17T04:15:08.288Z,98947.73
2018-06-17T04:15:39.529Z,98953.80
2018-06-17T04:16:10.761Z,98951.91
2018-06-17T04:16:41.993Z,98955.89
2018-06-17T04:17:13.230Z,98952.17
2018-06-17T04:17:44.492Z,98954.99
2018-06-17T04:18:15.792Z,98953.80
2018-06-17T04:18:47.082Z,98953.48
2018-06-17T04:19:18.315Z,98954.45
2018-06-17T04:19:49.551Z,98958.47
2018-06-17T04:20:20.781Z,98952.36
2018-06-17T04:20:52.017Z,98958.27
2018-06-17T04:21:23.249Z,98956.00
2018-06-17T04:21:54.484Z,98957.95
2018-06-17T04:22:25.718Z,98959.66
2018-06-17T04:22:56.956Z,98963.75
2018-06-17T04:23:28.197Z,98958.95
2018-06-17T04:23:59.465Z,98957.88
2018-06-17T04:24:30.694Z,98961.03
2018-06-17T04:25:01.925Z,98962.23
2018-06-17T04:25:33.156Z,98967.44
2018-06-17T04:26:04.434Z,98958.17
2018-06-17T04:26:35.669Z,98963.84
2018-06-17T04:27:06.904Z,98966.16
2018-06-17T04:27:38.185Z,98966.29
2018-06-17T04:28:09.410Z,98968.35
2018-06-17T04:28:40.644Z,98970.08
2018-06-17T04:29:11.928Z,98964.55
2018-06-17T04:29:43.157Z,98940.52
2018-06-17T04:30:14.441Z,98970.09
2018-06-17T04:30:45.677Z,98970.24
2018-06-17T04:31:16.913Z,98973.97
2018-06-17T04:31:48.142Z,98974.13
2018-06-17T04:32:19.421Z,98974.25
2018-06-17T04:32:50.659Z,98974.25
2018-06-17T04:33:21.953Z,98970.03
2018-06-17T04:33:53.188Z,98974.38
2018-06-17T04:34:24.429Z,98974.86
2018-06-17T04:34:55.713Z,98974.03
2018-06-17T04:35:26.959Z,98977.66
2018-06-17T04:35:58.228Z,98977.78
2018-06-17T04:36:29.468Z,98973.32
2018-06-17T04:37:00.702Z,98978.16
2018-06-17T04:37:31.935Z,98981.30
2018-06-17T04:38:03.169Z,98975.62
2018-06-17T04:38:34.417Z,98977.07
2018-06-17T04:39:05.649Z,98982.25
2018-06-17T04:39:36.888Z,98973.56
2018-06-17T04:40:08.159Z,98980.70
2018-06-17T04:40:39.403Z,98982.16
2018-06-17T04:41:10.657Z,98982.52
2018-06-17T04:41:41.886Z,98979.75
2018-06-17T04:42:13.173Z,98981.53
2018-06-17T04:42:44.404Z,98981.81
2018-06-17T04:43:15.636Z,98982.52
2018-06-17T04:43:46.876Z,98983.73
2018-06-17T04:44:18.109Z,98982.66
2018-06-17T04:44:49.341Z,98979.03
2018-06-17T04:45:20.580Z,98982.19
2018-06-17T04:45:51.857Z,98980.48
2018-06-17T04:46:23.127Z,98980.48
2018-06-17T04:46:54.366Z,98984.09
2018-06-17T04:47:25.605Z,98983.02
2018-06-17T04:47:56.873Z,98983.75
2018-06-17T04:48:28.130Z,98986.89
2018-06-17T04:48:59.381Z,98988.61
2018-06-17T04:49:30.613Z,98990.42
2018-06-17T04:50:01.883Z,98981.02
2018-06-17T04:50:33.125Z,98987.53
2018-06-17T04:51:04.389Z,98989.94
2018-06-17T04:51:35.626Z,98988.27
2018-06-17T04:52:06.869Z,98993.55
2018-06-17T04:52:38.102Z,98989.48
2018-06-17T04:53:09.385Z,98988.48
2018-06-17T04:53:40.621Z,98991.02
2018-06-17T04:54:11.858Z,98987.52
2018-06-17T04:54:43.120Z,98987.04
2018-06-17T04:55:14.356Z,98989.81
2018-06-17T04:55:45.612Z,98992.94
2018-06-17T04:56:16.884Z,98989.93
2018-06-17T04:56:48.120Z,98983.99
2018-06-17T04:57:19.361Z,98988.11
2018-06-17T04:57:50.603Z,98991.00
2018-06-17T04:58:21.844Z,98995.67
2018-06-17T04:58:53.076Z,98993.29
2018-06-17T04:59:24.352Z,98989.44
2018-06-17T04:59:55.626Z,98994.39
2018-06-17T05:00:26.845Z,98988.22
2018-06-17T05:00:58.137Z,98990.38
2018-06-17T05:01:29.365Z,98985.80
2018-06-17T05:02:00.599Z,98986.39
2018-06-17T05:02:31.824Z,98983.38
2018-06-17T05:03:03.053Z,98987.82
2018-06-17T05:03:34.325Z,98985.77
2018-06-17T05:04:05.553Z,98983.20
2018-06-17T05:04:36.817Z,98988.14
2018-06-17T05:05:08.066Z,98982.59
2018-06-17T05:05:39.301Z,98980.05
2018-06-17T05:06:10.615Z,98987.15
2018-06-17T05:06:41.845Z,98986.45
2018-06-17T05:07:13.077Z,98983.06
2018-06-17T05:07:44.314Z,98987.31
2018-06-17T05:08:15.564Z,98981.14
2018-06-17T05:08:46.805Z,98987.51
2018-06-17T05:09:18.037Z,98984.48
2018-06-17T05:09:49.262Z,98981.83
2018-06-17T05:10:20.525Z,98983.29
2018-06-17T05:10:51.765Z,98989.11
2018-06-17T05:11:22.997Z,98991.62
2018-06-17T05:11:54.225Z,98990.53
2018-06-17T05:12:25.457Z,98988.47
2018-06-17T05:12:56.689Z,98985.44
2018-06-17T05:13:27.972Z,98986.03
2018-06-17T05:13:59.216Z,98983.79
2018-06-17T05:14:30.440Z,98985.39
2018-06-17T05:15:01.678Z,98982.61
2018-06-17T05:15:32.909Z,98988.05
2018-06-17T05:16:04.184Z,98985.79
2018-06-17T05:16:35.416Z,98985.00
2018-06-17T05:17:06.674Z,98986.48
2018-06-17T05:17:37.933Z,98982.22
2018-06-17T05:18:09.165Z,98982.49
2018-06-17T05:18:40.403Z,98982.27
2018-06-17T05:19:11.638Z,98984.88
2018-06-17T05:19:42.905Z,98978.23
2018-06-17T05:20:14.150Z,98977.78
2018-06-17T05:20:45.381Z,98974.73
2018-06-17T05:21:16.617Z,98973.69
2018-06-17T05:21:47.845Z,98974.88
2018-06-17T05:22:19.079Z,98982.11
2018-06-17T05:22:50.315Z,98980.62
2018-06-17T05:23:21.570Z,98980.11
2018-06-17T05:23:52.809Z,98977.77
2018-06-17T05:24:24.053Z,98979.82
2018-06-17T05:24:55.318Z,98972.23
2018-06-17T05:25:26.595Z,98976.48
2018-06-17T05:25:57.866Z,98980.06
2018-06-17T05:26:29.093Z,98979.70
2018-06-17T05:27:00.329Z,98974.98
2018-06-17T05:27:31.558Z,98977.69
2018-06-17T05:28:02.789Z,98972.27
2018-06-17T05:28:34.077Z,98971.44
2018-06-17T05:29:05.315Z,98973.90
2018-06-17T05:29:36.545Z,98967.13
2018-06-17T05:30:07.790Z,98971.63
2018-06-17T05:30:39.049Z,98970.97
2018-06-17T05:31:10.291Z,98970.89
2018-06-17T05:31:41.525Z,98972.46
2018-06-17T05:32:12.757Z,98972.27
2018-06-17T05:32:44.032Z,98973.36
2018-06-17T05:33:15.282Z,98971.56
2018-06-17T05:33:46.570Z,98974.14
2018-06-17T05:34:17.789Z,98975.52
2018-06-17T05:34:49.018Z,98976.39
2018-06-17T05:35:20.249Z,98977.73
2018-06-17T05:35:51.481Z,98972.86
2018-06-17T05:36:22.758Z,98973.59
2018-06-17T05:36:53.995Z,98971.34
2018-06-17T05:37:25.243Z,98974.09
2018-06-17T05:37:56.476Z,98976.34
2018-06-17T05:38:27.722Z,98971.83
2018-06-17T05:38:58.980Z,98979.17
2018-06-17T05:39:30.225Z,98977.18
2018-06-17T05:40:01.462Z,98978.16
2018-06-17T05:40:32.745Z,98977.11
2018-06-17T05:41:03.988Z,98977.09
2018-06-17T05:41:35.217Z,98980.44
2018-06-17T05:42:06.454Z,98976.27
2018-06-17T05:42:37.685Z,98974.09
2018-06-17T05:43:08.920Z,98978.48
2018-06-17T05:43:40.233Z,98985.52
2018-06-17T05:44:11.479Z,98979.33
2018-06-17T05:44:42.717Z,98985.68
2018-06-17T05:45:13.950Z,98983.84
2018-06-17T05:45:45.221Z,98984.82
2018-06-17T05:46:16.469Z,98986.95
2018-06-17T05:46:47.717Z,98982.58
2018-06-17T05:47:18.954Z,98985.03
2018-06-17T05:47:50.185Z,98981.88
2018-06-17T05:48:21.469Z,98989.09
2018-06-17T05:48:52.701Z,98990.80
2018-06-17T05:49:23.928Z,98988.60
2018-06-17T05:49:55.165Z,98994.67
2018-06-17T05:50:26.389Z,98987.45
2018-06-17T05:50:57.656Z,98995.87
2018-06-17T05:51:28.920Z,98988.34
2018-06-17T05:52:00.145Z,98992.91
2018-06-17T05:52:31.375Z,98992.27
2018-06-17T05:53:02.611Z,98989.93
2018-06-17T05:53:33.841Z,98996.63
2018-06-17T05:54:05.073Z,98993.95
2018-06-17T05:54:36.324Z,99000.33
2018-06-17T05:55:07.558Z,98995.77
2018-06-17T05:55:38.789Z,98994.81
2018-06-17T05:56:10.202Z,98999.34
2018-06-17T05:56:41.441Z,98996.30
2018-06-17T05:57:12.673Z,98996.63
2018-06-17T05:57:43.905Z,98994.29
2018-06-17T05:58:15.185Z,98995.62
2018-06-17T05:58:46.422Z,98994.78
2018-06-17T05:59:17.661Z,98997.64
2018-06-17T05:59:48.897Z,98993.29
2018-06-17T06:00:20.134Z,98997.64
2018-06-17T06:00:51.366Z,98989.94
2018-06-17T06:01:22.641Z,98994.28
2018-06-17T06:01:53.872Z,98989.44
2018-06-17T06:02:25.103Z,98995.30
2018-06-17T06:02:56.333Z,98994.05
2018-06-17T06:03:27.658Z,98991.52
2018-06-17T06:03:58.911Z,98987.42
2018-06-17T06:04:30.143Z,98998.14
2018-06-17T06:05:01.382Z,98994.16
2018-06-17T06:05:32.610Z,98988.14
2018-06-17T06:06:03.890Z,98984.78
2018-06-17T06:06:35.125Z,98985.64